Time;durP1;ratioP1;P1;durP2;ratioP2;P2;SDS_P1;SDS_P2;PMS_P1;PMS_P2;Temp;Humidity;BMP_temperature;BMP_pressure;BME280_temperature;BME280_humidity;BME280_pressure;Samples;Min_cycle;Max_cycle;Signal;HPM_P1;HPM_P2
2022/10/02 00:01:19;;;;;;;13.33;5.50;;;12.30;1.00;;;;;;6309811;22;20833;-66
2022/10/02 00:03:47;;;;;;;22.93;6.00;;;12.30;25.90;;;;;;6309412;22;20412;-67
2022/10/02 00:06:21;;;;;;;16.43;5.40;;;12.40;99.90;;;;;;6309903;22;20393;-66
2022/10/02 00:08:52;;;;;;;17.30;6.17;;;12.40;99.90;;;;;;6310149;22;20419;-67
2022/10/02 00:11:24;;;;;;;19.43;5.00;;;12.40;99.90;;;;;;6309627;22;20908;-66
2022/10/02 00:13:58;;;;;;;18.40;5.37;;;12.50;99.90;;;;;;6309184;22;20420;-66
2022/10/02 00:16:33;;;;;;;14.57;5.20;;;12.50;99.90;;;;;;6309925;22;20439;-66
2022/10/02 00:19:00;;;;;;;19.80;6.83;;;12.60;99.90;;;;;;6310085;22;20451;-67
2022/10/02 00:21:46;;;;;;;11.53;5.77;;;12.60;99.90;;;;;;6309489;22;20412;-66
2022/10/02 00:24:20;;;;;;;16.40;5.93;;;12.60;99.90;;;;;;6309151;22;20395;-66
2022/10/02 00:27:01;;;;;;;17.47;5.20;;;12.60;99.90;;;;;;6308968;22;20440;-67
2022/10/02 00:29:37;;;;;;;16.57;5.00;;;12.60;99.90;;;;;;6309544;22;20412;-67
2022/10/02 00:32:16;;;;;;;17.00;5.07;;;12.60;99.90;;;;;;6308461;22;20454;-66
2022/10/02 00:34:58;;;;;;;22.47;7.10;;;12.70;99.90;;;;;;6308189;22;20473;-66
2022/10/02 00:37:37;;;;;;;18.77;5.73;;;12.70;99.90;;;;;;6308999;22;20711;-66
2022/10/02 00:40:19;;;;;;;12.10;5.47;;;12.70;99.90;;;;;;6308593;22;20469;-66
2022/10/02 00:43:24;;;;;;;36.30;5.90;;;12.80;99.90;;;;;;6308434;22;20868;-67
2022/10/02 00:46:18;;;;;;;17.93;5.17;;;12.80;99.90;;;;;;6309194;22;20420;-66
2022/10/02 00:48:55;;;;;;;20.10;6.23;;;12.80;99.90;;;;;;6309661;22;20420;-67
2022/10/02 00:51:43;;;;;;;20.33;5.70;;;12.90;99.90;;;;;;6309459;22;20815;-67
2022/10/02 00:54:25;;;;;;;16.90;5.47;;;12.90;99.90;;;;;;6309305;22;20415;-67
2022/10/02 00:57:06;;;;;;;19.73;5.97;;;12.90;99.90;;;;;;6310120;22;20525;-67
2022/10/02 00:59:49;;;;;;;18.07;5.30;;;12.90;99.90;;;;;;6307724;22;20390;-67
2022/10/02 01:02:48;;;;;;;18.93;5.13;;;13.00;99.90;;;;;;6308165;22;20420;-67
2022/10/02 01:05:17;;;;;;;18.00;5.53;;;13.00;99.90;;;;;;6307240;22;20473;-67
2022/10/02 01:07:49;;;;;;;17.27;6.57;;;13.00;99.90;;;;;;6308118;22;20423;-67
2022/10/02 01:10:17;;;;;;;17.00;6.03;;;13.00;99.90;;;;;;6308199;22;20415;-67
2022/10/02 01:12:45;;;;;;;16.67;5.63;;;13.10;99.90;;;;;;6308260;22;20499;-67
2022/10/02 01:15:14;;;;;;;14.63;5.63;;;13.00;99.90;;;;;;6308457;22;20499;-66
2022/10/02 01:17:42;;;;;;;12.50;4.63;;;13.10;99.90;;;;;;6309275;22;20423;-66
2022/10/02 01:20:16;;;;;;;24.67;6.37;;;13.10;99.90;;;;;;6309015;22;20420;-67
2022/10/02 01:22:53;;;;;;;20.90;5.80;;;13.10;99.90;;;;;;6309875;22;20394;-67
2022/10/02 01:25:22;;;;;;;15.73;5.77;;;13.20;99.90;;;;;;6308179;22;20436;-66
2022/10/02 01:27:52;;;;;;;24.53;5.77;;;13.20;99.90;;;;;;6309452;22;20485;-67
2022/10/02 01:30:22;;;;;;;20.93;6.40;;;13.20;99.90;;;;;;6308982;22;20446;-67
2022/10/02 01:32:52;;;;;;;23.50;7.20;;;13.20;99.90;;;;;;6309584;22;20443;-67
2022/10/02 01:35:22;;;;;;;17.80;7.40;;;13.20;99.90;;;;;;6309314;22;20423;-67
2022/10/02 01:37:51;;;;;;;12.83;5.00;;;13.20;99.90;;;;;;6309334;22;20426;-67
2022/10/02 01:40:28;;;;;;;15.13;6.33;;;13.20;99.90;;;;;;6308692;22;20416;-67
2022/10/02 01:43:00;;;;;;;20.53;6.60;;;13.20;99.90;;;;;;6309540;22;20387;-67
2022/10/02 01:45:41;;;;;;;17.63;7.07;;;13.20;99.90;;;;;;6308949;22;20416;-67
2022/10/02 01:48:16;;;;;;;26.63;7.00;;;13.30;99.90;;;;;;6309452;22;20420;-67
2022/10/02 01:50:56;;;;;;;30.40;7.33;;;13.20;99.90;;;;;;6309165;22;20511;-67
2022/10/02 01:53:33;;;;;;;24.83;7.70;;;13.20;99.90;;;;;;6310171;22;20394;-67
2022/10/02 01:56:09;;;;;;;29.03;6.97;;;13.30;99.90;;;;;;6311382;22;20387;-68
2022/10/02 01:58:49;;;;;;;20.07;7.80;;;13.30;99.90;;;;;;6311257;22;20446;-67
2022/10/02 02:01:31;;;;;;;16.37;6.23;;;13.30;99.90;;;;;;6310689;22;20418;-69
2022/10/02 02:04:11;;;;;;;16.20;6.80;;;13.20;99.90;;;;;;6311178;22;20688;-68
2022/10/02 02:06:49;;;;;;;19.43;9.03;;;13.20;99.90;;;;;;6311070;22;20451;-67
2022/10/02 02:09:23;;;;;;;19.67;7.27;;;13.20;99.90;;;;;;6311126;22;20397;-67
2022/10/02 02:11:59;;;;;;;18.23;6.80;;;13.20;99.90;;;;;;6309790;22;20462;-67
2022/10/02 02:14:30;;;;;;;18.67;7.00;;;13.20;99.90;;;;;;6311206;22;20420;-67
2022/10/02 02:17:06;;;;;;;22.03;7.23;;;13.30;99.90;;;;;;6311386;22;20412;-66
2022/10/02 02:19:37;;;;;;;22.67;9.53;;;13.30;99.90;;;;;;6310471;22;20887;-67
2022/10/02 02:22:09;;;;;;;26.90;10.50;;;13.30;99.90;;;;;;6310976;22;20416;-66
2022/10/02 02:24:40;;;;;;;23.30;8.07;;;13.40;99.90;;;;;;6311135;22;20424;-67
2022/10/02 02:27:13;;;;;;;26.40;10.07;;;13.30;99.90;;;;;;6310361;22;20473;-67
2022/10/02 02:29:44;;;;;;;20.73;8.07;;;13.40;99.90;;;;;;6310930;22;20387;-66
2022/10/02 02:32:16;;;;;;;29.90;9.17;;;13.40;99.90;;;;;;6311009;22;20889;-68
2022/10/02 02:34:46;;;;;;;29.13;8.80;;;13.30;99.90;;;;;;6311103;22;20420;-66
2022/10/02 02:37:18;;;;;;;20.43;8.70;;;13.40;99.90;;;;;;6310299;22;20420;-67
2022/10/02 02:39:51;;;;;;;32.47;9.40;;;13.40;99.90;;;;;;6310332;22;20834;-67
2022/10/02 02:42:22;;;;;;;26.93;8.40;;;13.40;99.90;;;;;;6311098;22;20833;-66
2022/10/02 02:44:53;;;;;;;33.07;10.30;;;13.40;99.90;;;;;;6311020;22;20387;-66
2022/10/02 02:47:24;;;;;;;24.50;9.27;;;13.30;99.90;;;;;;6310151;22;20416;-66
2022/10/02 02:49:56;;;;;;;32.87;11.53;;;13.40;99.90;;;;;;6309194;22;20395;-66
2022/10/02 02:52:31;;;;;;;19.00;7.83;;;13.40;99.90;;;;;;6310771;22;20450;-66
2022/10/02 02:55:08;;;;;;;28.10;7.83;;;13.30;99.90;;;;;;6310813;22;20386;-66
2022/10/02 02:57:44;;;;;;;17.63;7.60;;;13.30;99.90;;;;;;6310173;22;20422;-66
2022/10/02 03:00:13;;;;;;;20.37;9.50;;;13.30;99.90;;;;;;6310100;22;20412;-66
2022/10/02 03:02:40;;;;;;;27.33;11.20;;;13.30;99.90;;;;;;6310218;22;20497;-65
2022/10/02 03:05:14;;;;;;;28.07;10.40;;;13.40;99.90;;;;;;6310067;22;20908;-66
2022/10/02 03:07:49;;;;;;;26.37;9.50;;;13.40;99.90;;;;;;6310183;22;20416;-65
2022/10/02 03:10:30;;;;;;;24.00;8.97;;;13.40;99.90;;;;;;6310320;22;20416;-65
2022/10/02 03:13:10;;;;;;;28.63;9.03;;;13.40;99.90;;;;;;6311071;22;20404;-65
2022/10/02 03:15:47;;;;;;;21.57;9.50;;;13.40;99.90;;;;;;6310138;22;20386;-66
2022/10/02 03:18:29;;;;;;;28.17;10.40;;;13.40;99.90;;;;;;6310380;22;20385;-65
2022/10/02 03:21:07;;;;;;;24.30;8.57;;;13.40;99.90;;;;;;6309582;22;20413;-66
2022/10/02 03:23:41;;;;;;;32.93;8.83;;;13.50;99.90;;;;;;6309745;22;20848;-65
2022/10/02 03:26:17;;;;;;;22.13;8.27;;;13.40;99.90;;;;;;6309227;22;20413;-65
2022/10/02 03:28:51;;;;;;;23.37;8.50;;;13.50;99.90;;;;;;6310519;22;20498;-65
2022/10/02 03:31:21;;;;;;;22.10;8.87;;;13.50;99.90;;;;;;6309987;22;20492;-65
2022/10/02 03:33:50;;;;;;;25.03;9.63;;;13.50;99.90;;;;;;6309897;22;20416;-65
2022/10/02 03:36:19;;;;;;;28.30;9.93;;;13.50;99.90;;;;;;6310554;22;20401;-65
2022/10/02 03:38:50;;;;;;;33.37;10.97;;;13.60;99.90;;;;;;6309962;22;20397;-65
2022/10/02 03:41:17;;;;;;;28.60;9.87;;;13.60;99.90;;;;;;6309550;22;20713;-65
2022/10/02 03:43:46;;;;;;;30.37;9.47;;;13.50;99.90;;;;;;6309563;22;20454;-65
2022/10/02 03:46:13;;;;;;;29.40;8.60;;;13.50;99.90;;;;;;6310026;22;20426;-65
2022/10/02 03:48:40;;;;;;;19.63;7.57;;;13.40;99.90;;;;;;6309989;22;20712;-65
2022/10/02 03:51:07;;;;;;;28.23;8.17;;;13.50;99.90;;;;;;6308972;22;20421;-65
2022/10/02 03:53:36;;;;;;;24.90;7.57;;;13.50;99.90;;;;;;6309540;22;20512;-65
2022/10/02 03:56:08;;;;;;;24.13;7.47;;;13.50;99.90;;;;;;6310082;22;20694;-65
2022/10/02 03:58:41;;;;;;;21.83;8.03;;;13.50;99.90;;;;;;6310295;22;20436;-65
2022/10/02 04:01:16;;;;;;;27.67;9.10;;;13.50;99.90;;;;;;6309842;22;20413;-65
2022/10/02 04:03:49;;;;;;;31.27;9.10;;;13.40;99.90;;;;;;6309575;22;20416;-66
2022/10/02 04:06:20;;;;;;;19.00;9.20;;;13.50;99.90;;;;;;6310415;22;20739;-64
2022/10/02 04:08:56;;;;;;;26.73;11.50;;;13.50;99.90;;;;;;6310524;22;20870;-60
2022/10/02 04:11:32;;;;;;;23.53;9.97;;;13.50;99.90;;;;;;6310071;22;20455;-61
2022/10/02 04:14:06;;;;;;;22.50;11.93;;;13.50;99.90;;;;;;6311024;22;20481;-61
2022/10/02 04:16:40;;;;;;;23.23;10.23;;;13.50;99.90;;;;;;6310749;22;20420;-61
2022/10/02 04:19:20;;;;;;;14.00;7.37;;;13.40;99.90;;;;;;6310046;22;20557;-62
2022/10/02 04:21:54;;;;;;;18.03;7.47;;;13.30;99.90;;;;;;6310240;22;20474;-61
2022/10/02 04:24:31;;;;;;;15.50;5.50;;;13.30;99.90;;;;;;6310278;22;20391;-63
2022/10/02 04:27:06;;;;;;;8.20;4.03;;;13.20;99.90;;;;;;6309168;22;20913;-65
2022/10/02 04:29:37;;;;;;;11.80;4.83;;;13.10;99.90;;;;;;6309092;22;20412;-64
2022/10/02 04:32:16;;;;;;;19.83;6.10;;;13.00;99.90;;;;;;6309714;22;20501;-64
2022/10/02 04:34:44;;;;;;;9.47;4.00;;;13.00;99.90;;;;;;6309563;22;20860;-63
2022/10/02 04:37:33;;;;;;;11.50;4.40;;;12.90;99.90;;;;;;6309483;22;20723;-64
2022/10/02 04:40:13;;;;;;;14.10;4.00;;;12.90;99.90;;;;;;6309125;22;20420;-63
2022/10/02 04:42:53;;;;;;;8.33;3.90;;;12.80;99.90;;;;;;6309808;22;20412;-63
2022/10/02 04:45:44;;;;;;;10.77;3.50;;;12.70;99.90;;;;;;6309841;22;20420;-62
2022/10/02 04:48:41;;;;;;;9.27;3.90;;;12.70;99.90;;;;;;6310640;22;20395;-63
2022/10/02 04:51:18;;;;;;;7.23;3.60;;;12.70;99.90;;;;;;6309788;22;20838;-64
2022/10/02 04:54:01;;;;;;;14.57;4.03;;;12.70;99.90;;;;;;6308937;22;20489;-63
2022/10/02 04:56:55;;;;;;;9.97;4.47;;;12.70;99.90;;;;;;6310193;22;20521;-63
2022/10/02 04:59:38;;;;;;;13.03;4.97;;;12.70;99.90;;;;;;6309429;22;20426;-63
2022/10/02 05:02:21;;;;;;;9.30;3.97;;;12.70;99.90;;;;;;6310897;22;20383;-63
2022/10/02 05:05:10;;;;;;;11.33;4.43;;;12.70;99.90;;;;;;6309916;22;20715;-62
2022/10/02 05:08:01;;;;;;;7.30;4.00;;;12.60;99.90;;;;;;6309808;22;20917;-65
2022/10/02 05:10:56;;;;;;;12.57;6.10;;;12.60;99.90;;;;;;6309791;22;20485;-65
2022/10/02 05:13:42;;;;;;;6.20;3.80;;;12.50;99.90;;;;;;6309012;22;20415;-66
2022/10/02 05:16:42;;;;;;;8.40;3.30;;;12.40;99.90;;;;;;6308659;22;20777;-64
2022/10/02 05:19:23;;;;;;;9.30;3.03;;;12.40;99.90;;;;;;6227540;22;20424;-65
2022/10/02 05:22:13;;;;;;;5.30;3.27;;;12.30;99.90;;;;;;6309082;22;20414;-64
2022/10/02 05:25:01;;;;;;;8.13;3.83;;;12.30;99.90;;;;;;6308541;22;20456;-64
2022/10/02 05:27:54;;;;;;;6.80;3.77;;;12.30;99.90;;;;;;6307087;22;20416;-65
2022/10/02 05:30:21;;;;;;;6.87;3.60;;;12.30;99.90;;;;;;6310553;22;20412;-64
2022/10/02 05:33:25;;;;;;;5.67;3.00;;;12.30;99.90;;;;;;6311268;22;20446;-64
2022/10/02 05:36:21;;;;;;;6.60;2.90;;;12.30;99.90;;;;;;6247929;22;20419;-64
2022/10/02 05:39:07;;;;;;;4.77;3.73;;;12.30;99.90;;;;;;6273531;22;20432;-64
2022/10/02 05:41:52;;;;;;;6.23;2.73;;;12.30;99.90;;;;;;6305587;22;20424;-64
2022/10/02 05:44:22;;;;;;;5.60;3.03;;;12.30;99.90;;;;;;6309076;22;20424;-64
2022/10/02 05:46:55;;;;;;;5.33;3.30;;;12.30;99.90;;;;;;6309972;22;20858;-64
2022/10/02 05:49:29;;;;;;;4.27;2.80;;;12.30;99.90;;;;;;6310680;22;20449;-64
2022/10/02 05:52:00;;;;;;;6.77;2.80;;;12.40;99.90;;;;;;6311264;22;20568;-64
2022/10/02 05:54:43;;;;;;;5.83;3.07;;;12.40;99.90;;;;;;6311162;22;20485;-64
2022/10/02 05:57:16;;;;;;;5.03;3.30;;;12.30;99.90;;;;;;6310315;22;20392;-64
2022/10/02 05:59:56;;;;;;;4.90;2.90;;;12.30;99.90;;;;;;6311593;22;20698;-64
2022/10/02 06:02:33;;;;;;;5.87;4.00;;;12.40;99.90;;;;;;6312156;22;20438;-63
2022/10/02 06:05:07;;;;;;;5.83;3.20;;;12.40;99.90;;;;;;6311777;22;20419;-65
2022/10/02 06:07:34;;;;;;;7.63;4.23;;;12.40;99.90;;;;;;6310514;22;20420;-65
2022/10/02 06:10:13;;;;;;;13.47;4.37;;;12.50;99.90;;;;;;6310315;22;20416;-65
2022/10/02 06:12:45;;;;;;;9.03;4.90;;;12.50;99.90;;;;;;6310696;22;20448;-65
2022/10/02 06:15:21;;;;;;;13.37;4.97;;;12.60;99.90;;;;;;6310673;22;20434;-65
2022/10/02 06:17:53;;;;;;;10.13;4.90;;;12.70;99.90;;;;;;6310472;22;20394;-64
2022/10/02 06:20:25;;;;;;;11.33;4.90;;;12.70;99.90;;;;;;6311070;22;20417;-64
2022/10/02 06:23:01;;;;;;;9.33;5.40;;;12.80;99.90;;;;;;6311361;22;20412;-64
2022/10/02 06:25:38;;;;;;;9.47;6.80;;;12.80;99.90;;;;;;6310152;22;20756;-64
2022/10/02 06:28:13;;;;;;;17.60;6.00;;;12.90;99.90;;;;;;6310146;22;20408;-63
2022/10/02 06:30:46;;;;;;;14.33;5.37;;;13.00;99.90;;;;;;6310997;22;20808;-63
2022/10/02 06:33:18;;;;;;;11.50;6.53;;;13.00;99.90;;;;;;6310365;22;20964;-63
2022/10/02 06:36:03;;;;;;;15.23;5.50;;;13.00;99.90;;;;;;6311097;22;20512;-63
2022/10/02 06:38:45;;;;;;;11.77;5.30;;;13.10;99.90;;;;;;6309987;22;20394;-63
2022/10/02 06:41:19;;;;;;;15.40;6.07;;;13.10;99.90;;;;;;6310090;22;20821;-63
2022/10/02 06:44:06;;;;;;;10.43;5.73;;;13.20;99.90;;;;;;6310549;22;20389;-64
2022/10/02 06:46:45;;;;;;;20.07;7.30;;;13.20;99.90;;;;;;6310771;22;20478;-63
2022/10/02 06:49:25;;;;;;;14.47;6.57;;;13.20;99.90;;;;;;6310148;22;20416;-64
2022/10/02 06:52:04;;;;;;;15.43;6.00;;;13.30;99.90;;;;;;6310253;22;20422;-64
2022/10/02 06:54:48;;;;;;;24.63;7.33;;;13.30;99.90;;;;;;6310453;22;20489;-63
2022/10/02 06:57:32;;;;;;;13.27;7.00;;;13.30;99.90;;;;;;6310346;22;20423;-62
2022/10/02 07:00:11;;;;;;;13.40;8.80;;;13.20;99.90;;;;;;6310212;22;20685;-63
2022/10/02 07:03:15;;;;;;;20.50;7.37;;;13.30;99.90;;;;;;6310766;22;20382;-64
2022/10/02 07:06:19;;;;;;;12.60;6.60;;;13.40;99.90;;;;;;6310619;22;20420;-63
2022/10/02 07:09:10;;;;;;;14.87;6.60;;;13.30;99.90;;;;;;6310917;22;20387;-64
2022/10/02 07:11:48;;;;;;;16.90;7.53;;;13.30;99.90;;;;;;6309281;22;20494;-64
2022/10/02 07:14:30;;;;;;;17.60;7.53;;;13.40;99.90;;;;;;6307024;22;20412;-64
2022/10/02 07:17:14;;;;;;;15.60;7.13;;;13.40;99.90;;;;;;6306530;22;20413;-64
2022/10/02 07:20:08;;;;;;;18.67;7.50;;;13.50;99.90;;;;;;6308489;22;20404;-63
2022/10/02 07:22:48;;;;;;;11.63;6.70;;;13.60;99.90;;;;;;6309911;22;20474;-63
2022/10/02 07:25:36;;;;;;;12.80;6.70;;;13.50;99.90;;;;;;6308773;22;20447;-64
2022/10/02 07:28:12;;;;;;;17.80;7.37;;;13.60;99.90;;;;;;6310284;22;20390;-63
2022/10/02 07:30:55;;;;;;;13.53;6.73;;;13.60;99.90;;;;;;6310107;22;20391;-64
2022/10/02 07:33:33;;;;;;;12.90;6.27;;;13.60;99.90;;;;;;6310138;22;20422;-63
2022/10/02 07:36:06;;;;;;;22.80;16.30;;;13.60;99.90;;;;;;6309661;22;20416;-63
2022/10/02 07:38:57;;;;;;;14.17;9.50;;;13.70;99.90;;;;;;6310803;22;20416;-63
2022/10/02 07:41:53;;;;;;;14.13;7.43;;;13.80;99.90;;;;;;6309398;22;20735;-63
2022/10/02 07:45:08;;;;;;;10.50;5.47;;;13.80;99.90;;;;;;6310496;22;20507;-63
2022/10/02 07:47:57;;;;;;;9.70;6.33;;;14.00;99.90;;;;;;6307803;22;20387;-63
2022/10/02 07:50:35;;;;;;;12.70;6.40;;;13.90;99.90;;;;;;6305342;22;20519;-64
2022/10/02 07:53:12;;;;;;;13.20;5.83;;;13.90;99.90;;;;;;6305272;22;20483;-64
2022/10/02 07:55:48;;;;;;;12.53;6.37;;;13.80;99.90;;;;;;6307110;22;20502;-63
2022/10/02 07:58:20;;;;;;;9.03;6.20;;;13.90;99.90;;;;;;6307347;22;20490;-63
2022/10/02 08:00:51;;;;;;;8.87;6.00;;;13.80;99.90;;;;;;6306727;22;20891;-63
2022/10/02 08:03:24;;;;;;;8.50;5.80;;;13.80;99.90;;;;;;6306284;22;20451;-63
2022/10/02 08:05:53;;;;;;;8.17;5.60;;;13.90;99.90;;;;;;6305854;22;20412;-63
2022/10/02 08:08:25;;;;;;;11.10;5.20;;;13.90;99.90;;;;;;6306424;22;20424;-63
2022/10/02 08:10:57;;;;;;;10.60;6.03;;;14.00;99.90;;;;;;6306591;22;20514;-63
2022/10/02 08:13:31;;;;;;;12.77;6.47;;;14.10;99.90;;;;;;6305569;22;20452;-63
2022/10/02 08:15:58;;;;;;;12.40;6.20;;;14.30;99.90;;;;;;6307240;22;20511;-63
2022/10/02 08:18:34;;;;;;;9.43;5.97;;;14.20;99.90;;;;;;6307599;22;20853;-63
2022/10/02 08:21:03;;;;;;;14.63;7.23;;;14.40;99.90;;;;;;6307513;22;20421;-62
2022/10/02 08:23:39;;;;;;;8.73;5.70;;;14.50;99.90;;;;;;6306986;22;20387;-63
2022/10/02 08:26:13;;;;;;;13.57;6.93;;;14.50;99.90;;;;;;6307258;22;20454;-63
2022/10/02 08:28:46;;;;;;;15.43;5.90;;;14.60;99.90;;;;;;6306753;22;20422;-62
2022/10/02 08:31:14;;;;;;;9.70;6.60;;;14.60;99.90;;;;;;6307035;22;20421;-63
2022/10/02 08:33:44;;;;;;;15.80;6.43;;;14.50;99.90;;;;;;6307514;22;20425;-62
2022/10/02 08:36:43;;;;;;;13.10;6.50;;;14.60;99.90;;;;;;6308793;22;20465;-62
2022/10/02 08:39:37;;;;;;;10.97;6.80;;;14.60;99.90;;;;;;6268440;22;20757;-62
2022/10/02 08:42:39;;;;;;;13.57;6.57;;;14.50;99.90;;;;;;6308654;22;20444;-62
2022/10/02 08:45:35;;;;;;;9.53;6.07;;;14.40;99.90;;;;;;6300570;22;20394;-62
2022/10/02 08:49:01;;;;;;;11.73;5.70;;;14.30;99.90;;;;;;6307225;22;20419;-62
2022/10/02 08:52:08;;;;;;;14.47;6.53;;;14.50;99.90;;;;;;6307880;22;20502;-62
2022/10/02 08:55:13;;;;;;;10.20;6.90;;;14.70;99.90;;;;;;6278742;22;20455;-62
2022/10/02 08:58:21;;;;;;;11.13;7.53;;;14.80;99.90;;;;;;6307078;22;20394;-62
2022/10/02 09:01:05;;;;;;;14.43;6.57;;;15.00;99.90;;;;;;6307551;22;20395;-61
2022/10/02 09:04:11;;;;;;;14.23;7.73;;;14.80;99.90;;;;;;6307817;22;20451;-61
2022/10/02 09:07:03;;;;;;;15.13;8.33;;;14.70;99.90;;;;;;6308117;22;20530;-61
2022/10/02 09:10:05;;;;;;;16.07;7.27;;;14.60;99.90;;;;;;6307903;22;20514;-62
2022/10/02 09:13:09;;;;;;;16.50;8.20;;;14.50;99.90;;;;;;6257256;22;20422;-61
2022/10/02 09:15:50;;;;;;;14.07;8.53;;;14.50;99.90;;;;;;6307598;22;20390;-62
2022/10/02 09:18:31;;;;;;;16.20;8.10;;;14.70;99.90;;;;;;6308381;22;20386;-61
2022/10/02 09:21:22;;;;;;;12.37;8.00;;;14.70;99.90;;;;;;6307970;22;20439;-62
2022/10/02 09:24:38;;;;;;;14.63;8.30;;;14.90;99.90;;;;;;6308302;22;20395;-62
2022/10/02 09:27:49;;;;;;;16.37;7.70;;;14.60;99.90;;;;;;6307422;22;20836;-63
2022/10/02 09:30:35;;;;;;;15.03;8.30;;;14.50;99.90;;;;;;6212646;23;20421;-62
2022/10/02 09:33:30;;;;;;;17.73;9.20;;;14.50;99.90;;;;;;6306935;22;20448;-63
2022/10/02 09:36:34;;;;;;;14.30;9.00;;;14.40;99.90;;;;;;6308041;22;20424;-62
2022/10/02 09:39:25;;;;;;;19.20;11.37;;;14.50;99.90;;;;;;6307166;22;20394;-63
2022/10/02 09:42:42;;;;;;;14.17;7.73;;;14.40;99.90;;;;;;6307389;22;20418;-62
2022/10/02 09:46:00;;;;;;;15.63;8.40;;;14.40;99.90;;;;;;6305164;22;20514;-62
2022/10/02 09:49:02;;;;;;;13.67;8.13;;;14.30;99.90;;;;;;6283024;22;20442;-63
2022/10/02 09:52:08;;;;;;;16.07;8.40;;;14.30;99.90;;;;;;6307436;22;20415;-65
2022/10/02 09:55:13;;;;;;;10.90;7.20;;;14.30;99.90;;;;;;6271000;22;20434;-64
2022/10/02 09:58:13;;;;;;;19.53;6.90;;;14.50;99.90;;;;;;6307307;22;20416;-64
2022/10/02 10:01:11;;;;;;;12.20;5.83;;;14.50;99.90;;;;;;6256001;22;20412;-63
2022/10/02 10:04:11;;;;;;;11.57;7.10;;;14.80;99.90;;;;;;6307192;22;20393;-63
2022/10/02 10:07:17;;;;;;;10.37;6.00;;;15.00;99.90;;;;;;6307917;22;20779;-63
2022/10/02 10:10:28;;;;;;;9.17;5.77;;;15.10;99.90;;;;;;6219070;22;20444;-63
2022/10/02 10:13:51;;;;;;;9.73;5.23;;;15.00;99.90;;;;;;6306109;22;20422;-62
2022/10/02 10:17:07;;;;;;;8.60;4.63;;;15.00;99.90;;;;;;6308205;22;20423;-62
2022/10/02 10:20:10;;;;;;;9.00;5.77;;;14.80;99.90;;;;;;6300351;22;20431;-62
2022/10/02 10:22:58;;;;;;;12.33;5.00;;;14.80;99.90;;;;;;6308790;22;20416;-62
2022/10/02 10:29:20;;;;;;;8.00;4.40;;;15.10;99.90;;;;;;6307346;22;20395;-62
2022/10/02 10:32:19;;;;;;;10.67;4.80;;;15.50;99.90;;;;;;6308943;22;20759;-63
2022/10/02 10:35:23;;;;;;;6.40;4.77;;;15.70;99.90;;;;;;6309416;22;20458;-62
2022/10/02 10:38:34;;;;;;;7.43;4.43;;;15.80;99.90;;;;;;6309163;22;20519;-63
2022/10/02 10:41:40;;;;;;;7.77;3.60;;;15.80;99.90;;;;;;6308146;22;20391;-62
2022/10/02 10:44:43;;;;;;;8.20;5.20;;;15.80;99.90;;;;;;6308670;22;20840;-62
2022/10/02 10:47:43;;;;;;;7.20;3.87;;;16.10;99.90;;;;;;6304881;22;20509;-62
2022/10/02 10:50:51;;;;;;;9.30;4.67;;;16.40;1.00;;;;;;6307832;22;20420;-62
2022/10/02 10:53:47;;;;;;;5.90;3.67;;;16.30;1.00;;;;;;6211481;23;20451;-62
2022/10/02 10:56:38;;;;;;;4.20;3.57;;;16.00;99.90;;;;;;6212540;23;20434;-62
2022/10/02 10:59:33;;;;;;;6.47;4.53;;;15.90;1.00;;;;;;6294368;22;20753;-62
2022/10/02 11:02:23;;;;;;;4.63;4.13;;;15.70;1.00;;;;;;6307253;22;20781;-62
2022/10/02 11:05:19;;;;;;;8.40;5.27;;;15.60;53.70;;;;;;6308161;22;20493;-62
2022/10/02 11:08:08;;;;;;;9.07;5.30;;;15.60;1.00;;;;;;6307825;22;20426;-62
2022/10/02 11:10:52;;;;;;;6.10;4.93;;;15.80;99.90;;;;;;6307329;22;20448;-62
2022/10/02 11:13:45;;;;;;;8.50;4.73;;;16.20;99.90;;;;;;6306055;22;20734;-61
2022/10/02 11:16:58;;;;;;;6.77;5.00;;;16.50;49.00;;;;;;6307217;22;20416;-62
2022/10/02 11:19:46;;;;;;;11.97;6.33;;;16.90;99.90;;;;;;6303083;22;20531;-63
2022/10/02 11:22:54;;;;;;;10.20;5.90;;;17.70;1.00;;;;;;6308076;22;20424;-63
2022/10/02 11:26:02;;;;;;;8.03;5.40;;;18.30;1.00;;;;;;6308356;22;20501;-62
2022/10/02 11:29:11;;;;;;;11.37;5.23;;;18.50;1.00;;;;;;6308817;22;20426;-62
2022/10/02 11:32:26;;;;;;;8.00;5.00;;;18.20;1.00;;;;;;6231880;22;20436;-62
2022/10/02 11:35:25;;;;;;;9.60;5.37;;;17.50;1.00;;;;;;6213159;23;20545;-62
2022/10/02 11:38:13;;;;;;;6.43;5.27;;;17.20;1.00;;;;;;6256944;22;20479;-62
2022/10/02 11:41:04;;;;;;;8.27;4.47;;;17.50;1.00;;;;;;6306921;22;20506;-61
2022/10/02 11:44:01;;;;;;;6.90;5.40;;;17.80;99.90;;;;;;6295286;22;20510;-61
2022/10/02 11:46:55;;;;;;;10.87;5.87;;;17.80;99.90;;;;;;6306198;22;20455;-61
2022/10/02 11:49:50;;;;;;;7.43;5.00;;;17.90;99.90;;;;;;6267869;22;20420;-61
2022/10/02 11:52:43;;;;;;;7.60;5.17;;;17.90;99.90;;;;;;6307831;22;20417;-61
2022/10/02 11:55:30;;;;;;;8.40;5.70;;;17.60;99.90;;;;;;6306995;22;20487;-62
2022/10/02 11:58:07;;;;;;;12.10;5.03;;;17.20;99.90;;;;;;6308035;22;20833;-61
2022/10/02 12:01:06;;;;;;;6.90;5.70;;;17.20;99.90;;;;;;6307336;22;20426;-62
2022/10/02 12:03:45;;;;;;;8.53;4.93;;;17.10;99.90;;;;;;6307482;22;20412;-61
2022/10/02 12:06:28;;;;;;;10.50;5.63;;;17.00;99.90;;;;;;6308220;22;20420;-61
2022/10/02 12:09:09;;;;;;;7.77;4.50;;;17.20;99.90;;;;;;6307636;22;20394;-62
2022/10/02 12:11:44;;;;;;;6.50;4.70;;;17.90;1.00;;;;;;6307647;22;20774;-62
2022/10/02 12:14:34;;;;;;;7.43;4.73;;;18.50;99.90;;;;;;6307732;22;20593;-62
2022/10/02 12:17:21;;;;;;;7.93;4.67;;;18.50;99.90;;;;;;6307488;22;20420;-62
2022/10/02 12:28:55;;;;;;;9.10;5.00;;;20.10;99.90;;;;;;6306710;22;20478;-63
2022/10/02 12:31:32;;;;;;;4.90;3.67;;;20.40;99.90;;;;;;6307042;22;20459;-63
2022/10/02 12:34:07;;;;;;;5.90;3.90;;;19.70;99.90;;;;;;6303895;22;20447;-62
2022/10/02 12:36:47;;;;;;;8.07;4.07;;;19.30;99.90;;;;;;6307519;22;20497;-63
2022/10/02 12:39:37;;;;;;;8.17;3.20;;;18.60;99.90;;;;;;6307329;22;20423;-63
2022/10/02 12:42:20;;;;;;;6.73;4.50;;;18.20;99.90;;;;;;6306953;22;20526;-63
2022/10/02 12:45:19;;;;;;;5.40;3.53;;;18.30;99.90;;;;;;6304351;22;20407;-63
2022/10/02 12:48:16;;;;;;;5.27;4.17;;;18.40;99.90;;;;;;6304633;22;20416;-63
2022/10/02 12:51:24;;;;;;;5.50;3.97;;;18.20;99.90;;;;;;6300796;22;20448;-63
2022/10/02 12:54:42;;;;;;;7.17;3.83;;;18.10;99.90;;;;;;6283853;22;20741;-63
2022/10/02 12:57:51;;;;;;;8.10;4.20;;;18.10;99.90;;;;;;6152192;23;20423;-63
2022/10/02 13:00:20;;;;;;;7.13;4.50;;;18.30;99.90;;;;;;6191970;23;20473;-63
2022/10/02 13:03:26;;;;;;;5.40;3.90;;;18.30;99.90;;;;;;6212814;23;20499;-63
2022/10/02 13:06:45;;;;;;;8.53;4.10;;;18.20;99.90;;;;;;6123418;23;20417;-63
2022/10/02 13:09:33;;;;;;;8.50;4.00;;;18.20;99.90;;;;;;6275056;22;20483;-63
2022/10/02 13:12:26;;;;;;;7.07;3.87;;;18.70;99.90;;;;;;6281859;22;20700;-63
2022/10/02 13:15:10;;;;;;;8.93;4.20;;;18.90;99.90;;;;;;6306364;22;20543;-63
2022/10/02 13:17:54;;;;;;;6.63;3.53;;;18.90;99.90;;;;;;6307354;22;20455;-63
2022/10/02 13:20:31;;;;;;;9.27;5.53;;;18.80;99.90;;;;;;6307909;22;20424;-63
2022/10/02 13:23:06;;;;;;;7.77;4.57;;;18.50;99.90;;;;;;6308007;22;20418;-65
2022/10/02 13:25:55;;;;;;;7.83;4.00;;;18.00;99.90;;;;;;6306445;22;20440;-62
2022/10/02 13:29:08;;;;;;;14.63;8.93;;;17.90;99.90;;;;;;6307885;22;20420;-64
2022/10/02 13:31:54;;;;;;;8.13;5.23;;;18.20;99.90;;;;;;6250873;22;20429;-63
2022/10/02 13:34:50;;;;;;;11.23;4.40;;;18.30;99.90;;;;;;6306609;22;20741;-64
2022/10/02 13:37:27;;;;;;;10.07;4.07;;;18.30;99.90;;;;;;6296698;22;20431;-64
2022/10/02 13:40:21;;;;;;;7.00;4.63;;;18.10;99.90;;;;;;6304711;22;20466;-64
2022/10/02 13:43:19;;;;;;;9.50;4.70;;;18.00;99.90;;;;;;6284599;22;20428;-64
2022/10/02 13:45:55;;;;;;;8.67;4.13;;;17.70;99.90;;;;;;6282513;22;20421;-64
2022/10/02 13:48:35;;;;;;;7.07;4.10;;;17.60;99.90;;;;;;6305232;22;20510;-64
2022/10/02 13:51:07;;;;;;;8.07;4.27;;;17.50;99.90;;;;;;6308267;22;20885;-64
2022/10/02 13:54:09;;;;;;;10.27;4.10;;;17.40;99.90;;;;;;6308181;22;20710;-64
2022/10/02 13:56:49;;;;;;;6.23;4.60;;;17.10;99.90;;;;;;6284793;22;20432;-64
2022/10/02 13:59:30;;;;;;;10.57;4.50;;;16.90;99.90;;;;;;6308603;22;20893;-64
2022/10/02 14:02:25;;;;;;;11.73;5.00;;;16.80;99.90;;;;;;6309108;22;20520;-65
2022/10/02 14:05:03;;;;;;;8.80;4.33;;;16.60;99.90;;;;;;6308683;22;20455;-62
2022/10/02 14:07:48;;;;;;;10.40;4.80;;;16.30;99.90;;;;;;6307728;22;20424;-64
2022/10/02 14:10:27;;;;;;;8.10;4.40;;;16.10;99.90;;;;;;6308786;22;20425;-64
2022/10/02 14:13:06;;;;;;;11.00;5.07;;;15.90;1.00;;;;;;6309090;22;20419;-64
2022/10/02 14:15:49;;;;;;;12.57;5.13;;;16.00;1.00;;;;;;6308611;22;20520;-64
2022/10/02 14:18:34;;;;;;;8.07;3.97;;;16.00;1.00;;;;;;6308024;22;20522;-64